createdAt,value
2023-02-19T00:01:41.753Z,3.50
2023-02-19T00:04:14.849Z,3.90
2023-02-19T00:06:42.326Z,3.65
2023-02-19T00:09:10.730Z,3.50
2023-02-19T00:11:37.848Z,3.80
2023-02-19T00:14:04.890Z,3.17
2023-02-19T00:16:36.554Z,3.53
2023-02-19T00:19:05.233Z,3.97
2023-02-19T00:21:32.304Z,3.90
2023-02-19T00:24:04.035Z,4.20
2023-02-19T00:26:31.434Z,3.78
2023-02-19T00:28:58.759Z,4.13
2023-02-19T00:31:32.808Z,3.70
2023-02-19T00:34:02.401Z,3.95
2023-02-19T00:36:34.100Z,3.90
2023-02-19T00:39:00.941Z,4.00
2023-02-19T00:41:27.923Z,4.20
2023-02-19T00:43:58.583Z,4.28
2023-02-19T00:46:26.689Z,3.67
2023-02-19T00:48:53.981Z,4.07
2023-02-19T00:51:21.798Z,4.38
2023-02-19T00:53:48.739Z,4.22
2023-02-19T00:56:15.486Z,4.68
2023-02-19T00:58:42.423Z,4.00
2023-02-19T01:01:09.547Z,4.07
2023-02-19T01:03:37.135Z,4.70
2023-02-19T01:06:05.262Z,4.05
2023-02-19T01:08:32.853Z,4.20
2023-02-19T01:11:01.703Z,4.28
2023-02-19T01:13:28.822Z,3.78
2023-02-19T01:16:15.484Z,4.03
2023-02-19T01:18:42.570Z,4.40
2023-02-19T01:21:14.862Z,4.22
2023-02-19T01:23:41.757Z,4.57
2023-02-19T01:26:17.472Z,4.30
2023-02-19T01:28:44.832Z,4.53
2023-02-19T01:31:20.163Z,4.13
2023-02-19T01:33:52.537Z,4.00
2023-02-19T01:36:19.340Z,4.68
2023-02-19T01:38:46.260Z,4.18
2023-02-19T01:41:16.073Z,4.25
2023-02-19T01:44:02.693Z,4.35
2023-02-19T01:46:32.882Z,4.03
2023-02-19T01:49:04.939Z,4.20
2023-02-19T01:51:32.887Z,4.63
2023-02-19T01:54:01.610Z,4.35
2023-02-19T01:56:28.812Z,4.43
2023-02-19T01:58:55.459Z,4.57
2023-02-19T02:01:22.145Z,4.88
2023-02-19T02:03:50.012Z,4.75
2023-02-19T02:06:31.862Z,5.10
2023-02-19T02:09:18.247Z,4.72
2023-02-19T02:11:48.515Z,4.60
2023-02-19T02:14:16.948Z,5.20
2023-02-19T02:17:08.483Z,4.90
2023-02-19T02:20:02.623Z,4.20
2023-02-19T02:22:53.316Z,5.30
2023-02-19T02:25:31.985Z,4.72
2023-02-19T02:28:23.713Z,4.65
2023-02-19T02:31:00.054Z,4.82
2023-02-19T02:33:33.015Z,4.20
2023-02-19T02:36:13.416Z,4.57
2023-02-19T02:38:42.280Z,4.53
2023-02-19T02:41:09.533Z,4.05
2023-02-19T02:43:36.636Z,3.95
2023-02-19T02:46:03.749Z,3.97
2023-02-19T02:48:38.865Z,3.78
2023-02-19T02:51:20.769Z,3.83
2023-02-19T02:54:16.236Z,4.20
2023-02-19T02:56:44.449Z,4.25
2023-02-19T02:59:16.744Z,3.80
2023-02-19T03:02:05.129Z,4.28
2023-02-19T03:05:01.549Z,3.75
2023-02-19T03:07:34.502Z,4.60
2023-02-19T03:10:03.662Z,5.65
2023-02-19T03:12:57.541Z,4.30
2023-02-19T03:15:46.632Z,4.22
2023-02-19T03:18:32.339Z,6.38
2023-02-19T03:20:59.503Z,4.45
2023-02-19T03:23:49.916Z,4.43
2023-02-19T03:26:18.359Z,4.50
2023-02-19T03:29:11.746Z,4.00
2023-02-19T03:31:43.174Z,4.20
2023-02-19T03:34:14.476Z,4.50
2023-02-19T03:36:45.593Z,4.43
2023-02-19T03:39:15.400Z,3.92
2023-02-19T03:41:45.750Z,3.88
2023-02-19T03:44:24.866Z,4.05
2023-02-19T03:47:07.321Z,3.47
2023-02-19T03:49:55.389Z,3.67
2023-02-19T03:52:43.253Z,3.67
2023-02-19T03:55:40.912Z,3.33
2023-02-19T03:58:19.722Z,3.22
2023-02-19T04:00:55.516Z,3.50
2023-02-19T04:03:39.060Z,3.67
2023-02-19T04:06:10.968Z,3.30
2023-02-19T04:08:40.127Z,3.78
2023-02-19T04:11:08.421Z,2.65
2023-02-19T04:13:43.478Z,3.08
2023-02-19T04:16:14.074Z,2.40
2023-02-19T04:18:43.024Z,2.67
2023-02-19T04:21:11.046Z,2.25
2023-02-19T04:23:40.778Z,2.17
2023-02-19T04:26:08.468Z,2.53
2023-02-19T04:28:35.895Z,2.20
2023-02-19T04:31:02.661Z,2.55
2023-02-19T04:33:29.350Z,2.47
2023-02-19T04:35:56.018Z,2.17
2023-02-19T04:38:22.782Z,2.17
2023-02-19T04:40:51.592Z,2.55
2023-02-19T04:43:18.535Z,1.90
2023-02-19T04:45:45.138Z,2.47
2023-02-19T04:48:11.842Z,2.53
2023-02-19T04:50:39.741Z,2.20
2023-02-19T04:53:12.752Z,2.70
2023-02-19T04:55:39.738Z,2.60
2023-02-19T04:58:06.383Z,2.85
2023-02-19T05:00:34.257Z,2.65
2023-02-19T05:03:04.051Z,2.67
2023-02-19T05:05:30.667Z,2.95
2023-02-19T05:07:57.997Z,2.20
2023-02-19T05:10:24.642Z,2.40
2023-02-19T05:12:52.094Z,2.70
2023-02-19T05:15:21.788Z,3.13
2023-02-19T05:17:48.480Z,2.40
2023-02-19T05:20:15.140Z,2.97
2023-02-19T05:22:41.823Z,2.42
2023-02-19T05:25:08.527Z,2.50
2023-02-19T05:27:35.393Z,3.10
2023-02-19T05:30:02.165Z,2.50
2023-02-19T05:32:28.927Z,3.85
2023-02-19T05:34:58.591Z,3.05
2023-02-19T05:37:25.278Z,2.70
2023-02-19T05:39:51.997Z,2.40
2023-02-19T05:42:18.669Z,2.60
2023-02-19T05:44:45.362Z,2.40
2023-02-19T05:47:12.089Z,3.05
2023-02-19T05:49:41.830Z,2.50
2023-02-19T05:52:08.490Z,2.22
2023-02-19T05:54:35.148Z,2.33
2023-02-19T05:57:01.859Z,2.17
2023-02-19T05:59:28.557Z,2.17
2023-02-19T06:01:55.459Z,2.28
2023-02-19T06:04:22.428Z,2.38
2023-02-19T06:06:49.191Z,2.17
2023-02-19T06:09:16.095Z,2.00
2023-02-19T06:11:43.721Z,1.90
2023-02-19T06:14:13.362Z,1.95
2023-02-19T06:16:40.040Z,2.40
2023-02-19T06:19:06.752Z,2.40
2023-02-19T06:21:33.577Z,1.90
2023-02-19T06:24:05.181Z,2.30
2023-02-19T06:26:31.783Z,2.17
2023-02-19T06:28:58.377Z,2.03
2023-02-19T06:31:25.270Z,2.35
2023-02-19T06:33:52.045Z,2.80
2023-02-19T06:36:23.236Z,2.45
2023-02-19T06:38:49.914Z,2.78
2023-02-19T06:41:16.882Z,2.88
2023-02-19T06:43:43.554Z,2.50
2023-02-19T06:46:11.646Z,2.72
2023-02-19T06:48:39.166Z,2.50
2023-02-19T06:51:05.910Z,2.35
2023-02-19T06:53:32.690Z,2.30
2023-02-19T06:56:01.310Z,2.50
2023-02-19T06:58:28.040Z,2.30
2023-02-19T07:00:54.830Z,2.47
2023-02-19T07:03:21.609Z,2.58
2023-02-19T07:05:48.659Z,2.28
2023-02-19T07:08:17.441Z,2.50
2023-02-19T07:10:55.537Z,2.25
2023-02-19T07:13:22.907Z,2.55
2023-02-19T07:15:51.944Z,2.50
2023-02-19T07:18:19.011Z,2.05
2023-02-19T07:20:45.735Z,2.42
2023-02-19T07:23:12.342Z,2.72
2023-02-19T07:25:39.438Z,2.60
2023-02-19T07:28:06.834Z,2.03
2023-02-19T07:30:36.563Z,2.63
2023-02-19T07:33:03.222Z,2.92
2023-02-19T07:35:30.902Z,2.30
2023-02-19T07:37:57.521Z,2.35
2023-02-19T07:40:24.113Z,2.65
2023-02-19T07:42:50.717Z,2.60
2023-02-19T07:45:17.456Z,2.60
2023-02-19T07:47:44.197Z,2.28
2023-02-19T07:50:13.743Z,2.28
2023-02-19T07:52:40.654Z,2.33
2023-02-19T07:55:07.382Z,2.30
2023-02-19T07:57:34.013Z,2.20
2023-02-19T08:00:00.745Z,2.13
2023-02-19T08:02:46.086Z,2.20
2023-02-19T08:05:14.010Z,2.10
2023-02-19T08:07:40.692Z,2.22
2023-02-19T08:10:26.485Z,2.00
2023-02-19T08:13:18.965Z,1.95
2023-02-19T08:16:07.546Z,1.85
2023-02-19T08:18:41.919Z,2.35
2023-02-19T08:21:08.944Z,2.30
2023-02-19T08:23:36.984Z,2.40
2023-02-19T08:26:03.923Z,2.28
2023-02-19T08:28:30.935Z,2.40
2023-02-19T08:31:02.525Z,1.80
2023-02-19T08:33:30.545Z,2.53
2023-02-19T08:35:57.928Z,2.33
2023-02-19T08:38:24.601Z,2.10
2023-02-19T08:40:51.315Z,2.33
2023-02-19T08:43:19.416Z,2.28
2023-02-19T08:45:47.548Z,2.30
2023-02-19T08:48:14.654Z,2.03
2023-02-19T08:50:41.569Z,1.80
2023-02-19T08:53:11.320Z,2.00
2023-02-19T08:55:38.751Z,2.00
2023-02-19T08:58:06.171Z,1.60
2023-02-19T09:00:32.914Z,1.42
2023-02-19T09:02:59.693Z,1.20
2023-02-19T09:05:26.336Z,2.28
2023-02-19T09:07:53.113Z,2.47
2023-02-19T09:10:19.892Z,1.40
2023-02-19T09:12:46.771Z,1.08
2023-02-19T09:15:13.476Z,1.27
2023-02-19T09:17:40.131Z,1.10
2023-02-19T09:20:07.167Z,1.23
2023-02-19T09:22:33.909Z,0.88
2023-02-19T09:25:00.609Z,1.00
2023-02-19T09:27:28.069Z,1.15
2023-02-19T09:29:55.209Z,1.50
2023-02-19T09:32:22.113Z,1.20
2023-02-19T09:34:49.855Z,0.80
2023-02-19T09:37:16.659Z,1.33
2023-02-19T09:39:43.561Z,0.95
2023-02-19T09:42:15.805Z,1.00
2023-02-19T09:44:47.412Z,1.45
2023-02-19T09:47:22.786Z,0.70
2023-02-19T09:49:57.614Z,0.98
2023-02-19T09:52:27.941Z,1.00
2023-02-19T09:54:57.917Z,1.10
2023-02-19T09:57:26.480Z,0.98
2023-02-19T10:00:23.938Z,1.27
2023-02-19T10:03:34.605Z,0.93
2023-02-19T10:06:16.854Z,0.90
2023-02-19T10:08:45.694Z,0.90
2023-02-19T10:11:13.347Z,1.70
2023-02-19T10:13:52.833Z,1.00
2023-02-19T10:16:24.507Z,0.75
2023-02-19T10:18:51.247Z,0.77
2023-02-19T10:21:20.239Z,0.73
2023-02-19T10:23:50.537Z,0.68
2023-02-19T10:26:17.312Z,1.10
2023-02-19T10:28:43.966Z,0.80
2023-02-19T10:31:20.697Z,0.98
2023-02-19T10:33:58.425Z,1.00
2023-02-19T10:36:32.408Z,1.08
2023-02-19T10:39:01.049Z,0.90
2023-02-19T10:41:28.240Z,1.30
2023-02-19T10:44:04.092Z,0.63
2023-02-19T10:46:37.194Z,0.95
2023-02-19T10:49:05.583Z,0.75
2023-02-19T10:51:33.727Z,0.52
2023-02-19T10:54:18.023Z,0.60
2023-02-19T10:56:44.775Z,0.73
2023-02-19T10:59:25.256Z,0.70
2023-02-19T11:02:03.680Z,0.75
2023-02-19T11:04:38.534Z,0.98
2023-02-19T11:07:10.001Z,0.52
2023-02-19T11:09:42.836Z,0.85
2023-02-19T11:12:10.569Z,0.70
2023-02-19T11:14:37.334Z,0.70
2023-02-19T11:17:07.815Z,1.15
2023-02-19T11:19:36.683Z,0.68
2023-02-19T11:22:19.111Z,0.63
2023-02-19T11:24:50.288Z,1.17
2023-02-19T11:27:22.460Z,0.50
2023-02-19T11:29:49.481Z,0.88
2023-02-19T11:32:30.428Z,0.90
2023-02-19T11:35:22.705Z,0.95
2023-02-19T11:37:57.358Z,0.40
2023-02-19T11:40:32.745Z,0.60
2023-02-19T11:43:10.042Z,0.50
2023-02-19T11:45:52.906Z,0.52
2023-02-19T11:48:46.040Z,1.02
2023-02-19T11:51:35.866Z,0.80
2023-02-19T11:54:09.001Z,0.60
2023-02-19T11:56:40.986Z,0.68
2023-02-19T11:59:19.315Z,0.50
2023-02-19T12:02:01.780Z,0.63
2023-02-19T12:04:57.751Z,0.60
2023-02-19T12:07:55.668Z,0.65
2023-02-19T12:10:22.306Z,0.75
2023-02-19T12:13:01.298Z,0.40
2023-02-19T12:15:46.722Z,0.73
2023-02-19T12:18:19.361Z,0.88
2023-02-19T12:21:06.672Z,0.90
2023-02-19T12:23:47.095Z,0.60
2023-02-19T12:26:22.238Z,0.90
2023-02-19T12:28:54.955Z,0.73
2023-02-19T12:31:35.376Z,0.65
2023-02-19T12:34:20.237Z,0.82
2023-02-19T12:37:25.055Z,0.55
2023-02-19T12:39:51.564Z,0.60
2023-02-19T12:42:38.249Z,0.70
2023-02-19T12:45:44.413Z,0.50
2023-02-19T12:48:13.927Z,1.00
2023-02-19T12:50:41.435Z,0.40
2023-02-19T12:53:45.588Z,0.65
2023-02-19T12:56:20.467Z,0.60
2023-02-19T12:58:59.154Z,0.38
2023-02-19T13:01:33.912Z,0.52
2023-02-19T13:04:23.542Z,0.57
2023-02-19T13:06:57.910Z,0.30
2023-02-19T13:09:51.256Z,0.90
2023-02-19T13:12:24.642Z,0.70
2023-02-19T13:15:00.769Z,0.60
2023-02-19T13:17:34.962Z,0.57
2023-02-19T13:20:21.762Z,0.65
2023-02-19T13:23:39.275Z,0.90
2023-02-19T13:26:18.610Z,0.70
2023-02-19T13:29:17.025Z,0.30
2023-02-19T13:32:00.114Z,0.52
2023-02-19T13:34:42.072Z,0.50
2023-02-19T13:37:10.025Z,0.60
2023-02-19T13:39:36.893Z,0.68
2023-02-19T13:42:04.103Z,0.70
2023-02-19T13:44:41.012Z,0.50
2023-02-19T13:47:46.240Z,0.82
2023-02-19T13:50:20.588Z,0.50
2023-02-19T13:52:47.433Z,0.60
2023-02-19T13:55:52.220Z,0.47
2023-02-19T13:58:34.121Z,0.75
2023-02-19T14:01:01.728Z,0.60
2023-02-19T14:03:35.399Z,0.57
2023-02-19T14:06:06.183Z,0.60
2023-02-19T14:09:02.296Z,0.45
2023-02-19T14:11:48.267Z,0.40
2023-02-19T14:14:39.623Z,0.70
2023-02-19T14:17:09.349Z,0.40
2023-02-19T14:19:41.916Z,0.50
2023-02-19T14:22:58.260Z,0.50
2023-02-19T14:25:31.022Z,0.40
2023-02-19T14:28:02.843Z,0.60
2023-02-19T14:30:30.773Z,0.60
2023-02-19T14:33:09.724Z,0.65
2023-02-19T14:35:45.760Z,0.65
2023-02-19T14:38:20.128Z,0.40
2023-02-19T14:40:47.775Z,0.60
2023-02-19T14:43:16.453Z,0.50
2023-02-19T14:45:49.822Z,0.40
2023-02-19T14:48:41.647Z,0.50
2023-02-19T14:51:32.056Z,0.50
2023-02-19T14:54:00.887Z,0.40
2023-02-19T14:56:32.283Z,0.40
2023-02-19T14:59:11.985Z,0.60
2023-02-19T15:01:39.115Z,0.50
2023-02-19T15:04:06.681Z,0.63
2023-02-19T15:06:35.896Z,0.70
2023-02-19T15:09:07.209Z,0.70
2023-02-19T15:11:37.497Z,0.38
2023-02-19T15:14:06.040Z,0.50
2023-02-19T15:16:35.735Z,0.50
2023-02-19T15:19:05.651Z,0.50
2023-02-19T15:21:33.540Z,0.40
2023-02-19T15:24:02.354Z,0.52
2023-02-19T15:26:36.028Z,0.68
2023-02-19T15:29:14.156Z,0.65
2023-02-19T15:31:52.485Z,0.50
2023-02-19T15:34:23.147Z,0.50
2023-02-19T15:36:51.791Z,0.55
2023-02-19T15:39:26.134Z,0.52
2023-02-19T15:42:00.105Z,0.40
2023-02-19T15:44:44.393Z,0.52
2023-02-19T15:47:19.182Z,0.40
2023-02-19T15:49:54.665Z,0.47
2023-02-19T15:52:30.491Z,0.80
2023-02-19T15:55:17.021Z,0.70
2023-02-19T15:57:49.846Z,0.70
2023-02-19T16:00:16.608Z,0.52
2023-02-19T16:02:46.484Z,0.60
2023-02-19T16:05:17.962Z,0.43
2023-02-19T16:07:44.683Z,0.63
2023-02-19T16:10:24.204Z,0.77
2023-02-19T16:13:01.484Z,0.88
2023-02-19T16:15:29.860Z,0.40
2023-02-19T16:17:57.816Z,0.70
2023-02-19T16:20:33.565Z,0.82
2023-02-19T16:23:05.818Z,0.40
2023-02-19T16:25:46.079Z,0.60
2023-02-19T16:28:24.095Z,0.77
2023-02-19T16:31:20.700Z,0.60
2023-02-19T16:33:48.783Z,0.40
2023-02-19T16:36:19.477Z,0.50
2023-02-19T16:39:08.147Z,0.40
2023-02-19T16:41:40.065Z,0.70
2023-02-19T16:44:24.950Z,0.50
2023-02-19T16:46:58.166Z,0.90
2023-02-19T16:49:25.007Z,1.70
2023-02-19T16:51:54.020Z,0.70
2023-02-19T16:54:20.901Z,0.68
2023-02-19T16:56:47.666Z,0.60
2023-02-19T16:59:14.465Z,0.82
2023-02-19T17:01:41.233Z,0.70
2023-02-19T17:04:10.102Z,0.90
2023-02-19T17:06:40.331Z,0.65
2023-02-19T17:09:09.053Z,1.25
2023-02-19T17:11:36.398Z,1.02
2023-02-19T17:14:03.517Z,0.98
2023-02-19T17:16:34.402Z,0.88
2023-02-19T17:19:05.732Z,1.08
2023-02-19T17:21:33.501Z,1.00
2023-02-19T17:24:00.230Z,0.80
2023-02-19T17:26:29.574Z,0.93
2023-02-19T17:28:57.159Z,0.90
2023-02-19T17:31:24.278Z,0.95
2023-02-19T17:33:51.896Z,1.38
2023-02-19T17:36:30.972Z,1.15
2023-02-19T17:39:02.283Z,0.88
2023-02-19T17:41:29.433Z,1.33
2023-02-19T17:43:56.269Z,1.60
2023-02-19T17:46:25.203Z,1.08
2023-02-19T17:48:52.758Z,0.90
2023-02-19T17:51:19.705Z,1.13
2023-02-19T17:53:46.807Z,1.02
2023-02-19T17:56:22.270Z,1.23
2023-02-19T17:58:50.024Z,1.08
2023-02-19T18:01:16.912Z,1.20
2023-02-19T18:03:43.985Z,1.20
2023-02-19T18:06:11.398Z,1.17
2023-02-19T18:08:38.130Z,1.10
2023-02-19T18:11:07.032Z,1.73
2023-02-19T18:13:33.762Z,1.40
2023-02-19T18:16:01.035Z,1.50
2023-02-19T18:18:27.707Z,1.25
2023-02-19T18:20:54.411Z,1.65
2023-02-19T18:23:21.202Z,1.50
2023-02-19T18:25:47.911Z,1.20
2023-02-19T18:28:15.827Z,1.30
2023-02-19T18:30:44.316Z,1.35
2023-02-19T18:33:13.335Z,1.30
2023-02-19T18:35:40.128Z,1.10
2023-02-19T18:38:07.003Z,1.40
2023-02-19T18:40:33.977Z,0.93
2023-02-19T18:43:00.844Z,1.48
2023-02-19T18:45:29.747Z,1.35
2023-02-19T18:47:56.617Z,1.45
2023-02-19T18:50:23.338Z,1.63
2023-02-19T18:52:50.156Z,1.65
2023-02-19T18:55:17.052Z,2.00
2023-02-19T18:57:44.389Z,1.63
2023-02-19T19:00:16.046Z,2.10
2023-02-19T19:02:49.009Z,1.70
2023-02-19T19:05:23.051Z,5.93
2023-02-19T19:07:55.487Z,5.32
2023-02-19T19:10:22.686Z,14.80
2023-02-19T19:12:54.220Z,7.10
2023-02-19T19:15:21.960Z,5.20
2023-02-19T19:17:48.795Z,5.05
2023-02-19T19:20:20.627Z,4.85
2023-02-19T19:22:51.266Z,5.40
2023-02-19T19:25:18.671Z,4.20
2023-02-19T19:27:46.175Z,2.83
2023-02-19T19:30:13.421Z,2.60
2023-02-19T19:32:40.219Z,2.78
2023-02-19T19:35:07.186Z,3.20
2023-02-19T19:37:33.901Z,2.88
2023-02-19T19:40:00.604Z,2.83
2023-02-19T19:42:28.386Z,3.63
2023-02-19T19:44:55.966Z,4.30
2023-02-19T19:47:22.816Z,4.30
2023-02-19T19:49:49.463Z,3.60
2023-02-19T19:52:16.098Z,3.90
2023-02-19T19:54:43.361Z,3.45
2023-02-19T19:57:10.625Z,3.25
2023-02-19T19:59:39.376Z,3.10
2023-02-19T20:02:07.280Z,2.85
2023-02-19T20:04:33.909Z,2.88
2023-02-19T20:07:00.742Z,2.78
2023-02-19T20:09:29.217Z,3.08
2023-02-19T20:11:56.156Z,2.45
2023-02-19T20:14:23.682Z,2.97
2023-02-19T20:16:50.855Z,3.00
2023-02-19T20:19:18.581Z,2.33
2023-02-19T20:21:50.547Z,2.58
2023-02-19T20:24:28.687Z,2.95
2023-02-19T20:27:00.422Z,2.60
2023-02-19T20:29:29.144Z,2.67
2023-02-19T20:31:59.356Z,2.83
2023-02-19T20:34:26.481Z,2.75
2023-02-19T20:36:53.251Z,3.20
2023-02-19T20:39:21.462Z,3.10
2023-02-19T20:41:51.093Z,3.05
2023-02-19T20:44:18.614Z,2.92
2023-02-19T20:46:49.934Z,3.10
2023-02-19T20:49:18.433Z,3.15
2023-02-19T20:51:45.000Z,2.97
2023-02-19T20:54:11.827Z,3.17
2023-02-19T20:56:44.089Z,2.70
2023-02-19T20:59:12.815Z,2.45
2023-02-19T21:01:39.689Z,2.75
2023-02-19T21:04:09.899Z,2.78
2023-02-19T21:06:36.742Z,2.80
2023-02-19T21:09:04.308Z,2.70
2023-02-19T21:11:31.062Z,3.20
2023-02-19T21:13:59.336Z,2.63
2023-02-19T21:16:27.458Z,2.83
2023-02-19T21:18:54.377Z,2.80
2023-02-19T21:21:25.568Z,2.60
2023-02-19T21:23:55.670Z,2.85
2023-02-19T21:26:23.365Z,3.45
2023-02-19T21:28:53.739Z,2.75
2023-02-19T21:31:22.032Z,2.75
2023-02-19T21:33:50.040Z,2.17
2023-02-19T21:36:18.484Z,2.75
2023-02-19T21:38:45.161Z,2.67
2023-02-19T21:41:11.856Z,2.92
2023-02-19T21:43:38.488Z,2.20
2023-02-19T21:46:05.316Z,2.35
2023-02-19T21:48:32.178Z,2.30
2023-02-19T21:50:58.851Z,2.22
2023-02-19T21:53:25.621Z,2.50
2023-02-19T21:55:58.226Z,2.15
2023-02-19T21:58:26.244Z,2.10
2023-02-19T22:00:54.310Z,2.28
2023-02-19T22:03:21.257Z,2.55
2023-02-19T22:05:47.912Z,2.30
2023-02-19T22:08:17.694Z,1.98
2023-02-19T22:10:44.968Z,2.10
2023-02-19T22:13:11.806Z,1.90
2023-02-19T22:15:38.540Z,2.17
2023-02-19T22:18:05.614Z,2.13
2023-02-19T22:20:32.498Z,2.70
2023-02-19T22:22:59.136Z,2.90
2023-02-19T22:25:25.807Z,2.13
2023-02-19T22:27:55.254Z,2.45
2023-02-19T22:30:21.959Z,2.38
2023-02-19T22:32:48.671Z,2.47
2023-02-19T22:35:15.896Z,2.65
2023-02-19T22:37:42.632Z,2.33
2023-02-19T22:40:09.655Z,1.77
2023-02-19T22:42:36.785Z,1.90
2023-02-19T22:45:03.698Z,2.17
2023-02-19T22:47:30.373Z,1.50
2023-02-19T22:49:57.092Z,1.60
2023-02-19T22:52:28.064Z,1.60
2023-02-19T22:54:55.681Z,1.90
2023-02-19T22:57:22.412Z,1.70
2023-02-19T22:59:49.067Z,2.00
2023-02-19T23:02:15.753Z,1.92
2023-02-19T23:04:42.400Z,2.20
2023-02-19T23:07:09.230Z,1.80
2023-02-19T23:09:36.034Z,1.88
2023-02-19T23:12:10.713Z,1.60
2023-02-19T23:14:37.869Z,2.20
2023-02-19T23:17:04.676Z,2.03
2023-02-19T23:19:31.911Z,1.70
2023-02-19T23:21:58.835Z,1.77
2023-02-19T23:24:25.567Z,2.40
2023-02-19T23:26:53.495Z,2.42
2023-02-19T23:29:26.981Z,2.55
2023-02-19T23:31:54.376Z,2.30
2023-02-19T23:34:21.209Z,2.70
2023-02-19T23:36:49.740Z,2.53
2023-02-19T23:39:18.648Z,2.80
2023-02-19T23:41:52.167Z,2.45
2023-02-19T23:44:19.625Z,2.78
2023-02-19T23:46:46.340Z,2.53
2023-02-19T23:49:16.238Z,2.67
2023-02-19T23:51:42.843Z,3.25
2023-02-19T23:54:09.531Z,3.40
2023-02-19T23:56:36.241Z,3.58
2023-02-19T23:59:02.991Z,2.85
